sensor_id;sensor_type;location;lat;lon;timestamp;temperature;humidity
22114;DHT22;11223;49.968;9.062;2023-03-17T00:00:15;5.40;99.90
22114;DHT22;11223;49.968;9.062;2023-03-17T00:02:42;5.40;99.90
22114;DHT22;11223;49.968;9.062;2023-03-17T00:05:25;5.50;99.90
22114;DHT22;11223;49.968;9.062;2023-03-17T00:07:53;5.50;99.90
22114;DHT22;11223;49.968;9.062;2023-03-17T00:10:22;5.50;99.90
22114;DHT22;11223;49.968;9.062;2023-03-17T00:12:52;5.50;99.90
22114;DHT22;11223;49.968;9.062;2023-03-17T00:15:24;5.50;99.90
22114;DHT22;11223;49.968;9.062;2023-03-17T00:17:51;5.40;99.90
22114;DHT22;11223;49.968;9.062;2023-03-17T00:20:27;5.40;99.90
22114;DHT22;11223;49.968;9.062;2023-03-17T00:22:58;5.40;99.90
22114;DHT22;11223;49.968;9.062;2023-03-17T00:25:27;5.30;99.90
22114;DHT22;11223;49.968;9.062;2023-03-17T00:27:54;5.20;99.90
22114;DHT22;11223;49.968;9.062;2023-03-17T00:30:21;5.20;99.90
22114;DHT22;11223;49.968;9.062;2023-03-17T00:32:52;5.30;99.90
22114;DHT22;11223;49.968;9.062;2023-03-17T00:35:22;5.30;99.90
22114;DHT22;11223;49.968;9.062;2023-03-17T00:37:49;5.40;99.90
22114;DHT22;11223;49.968;9.062;2023-03-17T00:40:25;5.40;99.90
22114;DHT22;11223;49.968;9.062;2023-03-17T00:42:53;5.40;99.90
22114;DHT22;11223;49.968;9.062;2023-03-17T00:45:20;5.40;99.90
22114;DHT22;11223;49.968;9.062;2023-03-17T00:47:47;5.40;99.90
22114;DHT22;11223;49.968;9.062;2023-03-17T00:50:19;5.40;99.90
22114;DHT22;11223;49.968;9.062;2023-03-17T00:52:48;5.40;99.90
22114;DHT22;11223;49.968;9.062;2023-03-17T00:55:14;5.40;99.90
22114;DHT22;11223;49.968;9.062;2023-03-17T00:57:40;5.40;99.90
22114;DHT22;11223;49.968;9.062;2023-03-17T01:00:17;5.30;99.90
22114;DHT22;11223;49.968;9.062;2023-03-17T01:02:44;5.30;99.90
22114;DHT22;11223;49.968;9.062;2023-03-17T01:05:10;5.30;99.90
22114;DHT22;11223;49.968;9.062;2023-03-17T01:07:37;5.30;99.90
22114;DHT22;11223;49.968;9.062;2023-03-17T01:10:09;5.30;99.90
22114;DHT22;11223;49.968;9.062;2023-03-17T01:12:35;5.20;99.90
22114;DHT22;11223;49.968;9.062;2023-03-17T01:15:01;5.20;99.90
22114;DHT22;11223;49.968;9.062;2023-03-17T01:17:27;5.30;99.90
22114;DHT22;11223;49.968;9.062;2023-03-17T01:19:53;5.30;99.90
22114;DHT22;11223;49.968;9.062;2023-03-17T01:22:18;5.30;99.90
22114;DHT22;11223;49.968;9.062;2023-03-17T01:24:44;5.20;99.90
22114;DHT22;11223;49.968;9.062;2023-03-17T01:27:12;5.20;99.90
22114;DHT22;11223;49.968;9.062;2023-03-17T01:29:37;5.30;99.90
22114;DHT22;11223;49.968;9.062;2023-03-17T01:32:04;5.20;99.90
22114;DHT22;11223;49.968;9.062;2023-03-17T01:34:30;5.20;99.90
22114;DHT22;11223;49.968;9.062;2023-03-17T01:36:55;5.20;99.90
22114;DHT22;11223;49.968;9.062;2023-03-17T01:39:21;5.20;99.90
22114;DHT22;11223;49.968;9.062;2023-03-17T01:41:46;5.30;99.90
22114;DHT22;11223;49.968;9.062;2023-03-17T01:44:16;5.30;99.90
22114;DHT22;11223;49.968;9.062;2023-03-17T01:46:43;5.30;99.90
22114;DHT22;11223;49.968;9.062;2023-03-17T01:49:34;5.30;99.90
22114;DHT22;11223;49.968;9.062;2023-03-17T01:52:06;5.30;99.90
22114;DHT22;11223;49.968;9.062;2023-03-17T01:57:25;5.30;99.90
22114;DHT22;11223;49.968;9.062;2023-03-17T01:59:56;5.20;99.90
22114;DHT22;11223;49.968;9.062;2023-03-17T02:02:31;5.20;99.90
22114;DHT22;11223;49.968;9.062;2023-03-17T02:04:57;5.20;99.90
22114;DHT22;11223;49.968;9.062;2023-03-17T02:07:24;5.20;99.90
22114;DHT22;11223;49.968;9.062;2023-03-17T02:09:51;5.20;99.90
22114;DHT22;11223;49.968;9.062;2023-03-17T02:12:19;5.20;99.90
22114;DHT22;11223;49.968;9.062;2023-03-17T02:14:45;5.20;99.90
22114;DHT22;11223;49.968;9.062;2023-03-17T02:17:11;5.10;99.90
22114;DHT22;11223;49.968;9.062;2023-03-17T02:19:37;5.10;99.90
22114;DHT22;11223;49.968;9.062;2023-03-17T02:22:03;5.10;99.90
22114;DHT22;11223;49.968;9.062;2023-03-17T02:24:35;5.10;99.90
22114;DHT22;11223;49.968;9.062;2023-03-17T02:27:12;5.20;99.90
22114;DHT22;11223;49.968;9.062;2023-03-17T02:29:39;5.20;99.90
22114;DHT22;11223;49.968;9.062;2023-03-17T02:32:05;5.20;99.90
22114;DHT22;11223;49.968;9.062;2023-03-17T02:34:31;5.20;99.90
22114;DHT22;11223;49.968;9.062;2023-03-17T02:36:58;5.20;99.90
22114;DHT22;11223;49.968;9.062;2023-03-17T02:39:24;5.10;99.90
22114;DHT22;11223;49.968;9.062;2023-03-17T02:41:50;5.10;99.90
22114;DHT22;11223;49.968;9.062;2023-03-17T02:44:16;5.10;99.90
22114;DHT22;11223;49.968;9.062;2023-03-17T02:46:42;5.10;99.90
22114;DHT22;11223;49.968;9.062;2023-03-17T02:49:08;5.10;99.90
22114;DHT22;11223;49.968;9.062;2023-03-17T02:51:36;5.10;99.90
22114;DHT22;11223;49.968;9.062;2023-03-17T02:54:02;5.00;99.90
22114;DHT22;11223;49.968;9.062;2023-03-17T02:56:28;4.90;99.90
22114;DHT22;11223;49.968;9.062;2023-03-17T02:58:53;4.70;99.90
22114;DHT22;11223;49.968;9.062;2023-03-17T03:01:20;4.60;99.90
22114;DHT22;11223;49.968;9.062;2023-03-17T03:03:46;4.50;99.90
22114;DHT22;11223;49.968;9.062;2023-03-17T03:06:11;4.40;99.90
22114;DHT22;11223;49.968;9.062;2023-03-17T03:08:37;4.30;99.90
22114;DHT22;11223;49.968;9.062;2023-03-17T03:11:03;4.20;99.90
22114;DHT22;11223;49.968;9.062;2023-03-17T03:13:29;4.10;99.90
22114;DHT22;11223;49.968;9.062;2023-03-17T03:15:55;4.10;99.90
22114;DHT22;11223;49.968;9.062;2023-03-17T03:18:22;4.00;99.90
22114;DHT22;11223;49.968;9.062;2023-03-17T03:20:47;3.90;99.90
22114;DHT22;11223;49.968;9.062;2023-03-17T03:23:13;3.80;99.90
22114;DHT22;11223;49.968;9.062;2023-03-17T03:25:39;3.70;99.90
22114;DHT22;11223;49.968;9.062;2023-03-17T03:28:06;3.70;99.90
22114;DHT22;11223;49.968;9.062;2023-03-17T03:30:33;3.60;99.90
22114;DHT22;11223;49.968;9.062;2023-03-17T03:32:59;3.50;99.90
22114;DHT22;11223;49.968;9.062;2023-03-17T03:35:25;3.50;99.90
22114;DHT22;11223;49.968;9.062;2023-03-17T03:37:50;3.50;99.90
22114;DHT22;11223;49.968;9.062;2023-03-17T03:40:16;3.50;99.90
22114;DHT22;11223;49.968;9.062;2023-03-17T03:42:41;3.50;99.90
22114;DHT22;11223;49.968;9.062;2023-03-17T03:45:08;3.50;99.90
22114;DHT22;11223;49.968;9.062;2023-03-17T03:47:33;3.60;99.90
22114;DHT22;11223;49.968;9.062;2023-03-17T03:49:59;3.60;99.90
22114;DHT22;11223;49.968;9.062;2023-03-17T03:52:25;3.60;99.90
22114;DHT22;11223;49.968;9.062;2023-03-17T03:54:50;3.60;99.90
22114;DHT22;11223;49.968;9.062;2023-03-17T03:57:16;3.70;99.90
22114;DHT22;11223;49.968;9.062;2023-03-17T03:59:42;3.70;99.90
22114;DHT22;11223;49.968;9.062;2023-03-17T04:02:07;3.80;99.90
22114;DHT22;11223;49.968;9.062;2023-03-17T04:04:33;3.80;99.90
22114;DHT22;11223;49.968;9.062;2023-03-17T04:06:58;3.70;99.90
22114;DHT22;11223;49.968;9.062;2023-03-17T04:09:24;3.70;99.90
22114;DHT22;11223;49.968;9.062;2023-03-17T04:11:50;3.60;99.90
22114;DHT22;11223;49.968;9.062;2023-03-17T04:14:16;3.60;99.90
22114;DHT22;11223;49.968;9.062;2023-03-17T04:16:43;3.60;99.90
22114;DHT22;11223;49.968;9.062;2023-03-17T04:19:09;3.70;99.90
22114;DHT22;11223;49.968;9.062;2023-03-17T04:21:35;3.70;99.90
22114;DHT22;11223;49.968;9.062;2023-03-17T04:24:02;3.70;99.90
22114;DHT22;11223;49.968;9.062;2023-03-17T04:26:30;3.70;99.90
22114;DHT22;11223;49.968;9.062;2023-03-17T04:28:56;3.70;99.90
22114;DHT22;11223;49.968;9.062;2023-03-17T04:31:22;3.70;99.90
22114;DHT22;11223;49.968;9.062;2023-03-17T04:33:47;3.70;99.90
22114;DHT22;11223;49.968;9.062;2023-03-17T04:36:22;3.70;99.90
22114;DHT22;11223;49.968;9.062;2023-03-17T04:38:48;3.70;99.90
22114;DHT22;11223;49.968;9.062;2023-03-17T04:41:14;3.70;99.90
22114;DHT22;11223;49.968;9.062;2023-03-17T04:43:40;3.70;99.90
22114;DHT22;11223;49.968;9.062;2023-03-17T04:46:09;3.70;99.90
22114;DHT22;11223;49.968;9.062;2023-03-17T04:48:35;3.70;99.90
22114;DHT22;11223;49.968;9.062;2023-03-17T04:51:01;3.80;99.90
22114;DHT22;11223;49.968;9.062;2023-03-17T04:53:26;3.80;99.90
22114;DHT22;11223;49.968;9.062;2023-03-17T04:55:52;3.90;99.90
22114;DHT22;11223;49.968;9.062;2023-03-17T04:58:18;3.90;99.90
22114;DHT22;11223;49.968;9.062;2023-03-17T05:00:44;3.90;99.90
22114;DHT22;11223;49.968;9.062;2023-03-17T05:03:10;3.90;99.90
22114;DHT22;11223;49.968;9.062;2023-03-17T05:05:36;3.80;99.90
22114;DHT22;11223;49.968;9.062;2023-03-17T05:08:02;3.80;99.90
22114;DHT22;11223;49.968;9.062;2023-03-17T05:10:28;3.70;99.90
22114;DHT22;11223;49.968;9.062;2023-03-17T05:12:53;3.70;99.90
22114;DHT22;11223;49.968;9.062;2023-03-17T05:15:19;3.60;99.90
22114;DHT22;11223;49.968;9.062;2023-03-17T05:17:45;3.50;99.90
22114;DHT22;11223;49.968;9.062;2023-03-17T05:20:12;3.50;99.90
22114;DHT22;11223;49.968;9.062;2023-03-17T05:22:37;3.40;99.90
22114;DHT22;11223;49.968;9.062;2023-03-17T05:25:03;3.40;99.90
22114;DHT22;11223;49.968;9.062;2023-03-17T05:27:30;3.40;99.90
22114;DHT22;11223;49.968;9.062;2023-03-17T05:29:56;3.40;99.90
22114;DHT22;11223;49.968;9.062;2023-03-17T05:32:22;3.30;99.90
22114;DHT22;11223;49.968;9.062;2023-03-17T05:34:48;3.30;99.90
22114;DHT22;11223;49.968;9.062;2023-03-17T05:37:14;3.30;99.90
22114;DHT22;11223;49.968;9.062;2023-03-17T05:39:40;3.20;99.90
22114;DHT22;11223;49.968;9.062;2023-03-17T05:42:06;3.10;99.90
22114;DHT22;11223;49.968;9.062;2023-03-17T05:44:33;3.10;99.90
22114;DHT22;11223;49.968;9.062;2023-03-17T05:46:58;3.00;99.90
22114;DHT22;11223;49.968;9.062;2023-03-17T05:49:25;2.90;99.90
22114;DHT22;11223;49.968;9.062;2023-03-17T05:51:51;2.80;99.90
22114;DHT22;11223;49.968;9.062;2023-03-17T05:54:17;2.80;99.90
22114;DHT22;11223;49.968;9.062;2023-03-17T05:56:42;2.80;99.90
22114;DHT22;11223;49.968;9.062;2023-03-17T05:59:08;2.80;99.90
22114;DHT22;11223;49.968;9.062;2023-03-17T06:01:34;2.80;99.90
22114;DHT22;11223;49.968;9.062;2023-03-17T06:04:01;2.90;99.90
22114;DHT22;11223;49.968;9.062;2023-03-17T06:06:27;2.90;99.90
22114;DHT22;11223;49.968;9.062;2023-03-17T06:08:53;3.00;99.90
22114;DHT22;11223;49.968;9.062;2023-03-17T06:11:19;3.00;99.90
22114;DHT22;11223;49.968;9.062;2023-03-17T06:13:46;2.90;99.90
22114;DHT22;11223;49.968;9.062;2023-03-17T06:16:12;2.90;99.90
22114;DHT22;11223;49.968;9.062;2023-03-17T06:18:38;2.90;99.90
22114;DHT22;11223;49.968;9.062;2023-03-17T06:21:04;3.00;99.90
22114;DHT22;11223;49.968;9.062;2023-03-17T06:23:30;3.00;99.90
22114;DHT22;11223;49.968;9.062;2023-03-17T06:25:55;3.10;99.90
22114;DHT22;11223;49.968;9.062;2023-03-17T06:28:21;3.20;99.90
22114;DHT22;11223;49.968;9.062;2023-03-17T06:30:47;3.30;99.90
22114;DHT22;11223;49.968;9.062;2023-03-17T06:33:13;3.30;99.90
22114;DHT22;11223;49.968;9.062;2023-03-17T06:35:39;3.30;99.90
22114;DHT22;11223;49.968;9.062;2023-03-17T06:38:05;3.40;99.90
22114;DHT22;11223;49.968;9.062;2023-03-17T06:40:30;3.50;99.90
22114;DHT22;11223;49.968;9.062;2023-03-17T06:42:56;3.70;99.90
22114;DHT22;11223;49.968;9.062;2023-03-17T06:45:22;3.80;99.90
22114;DHT22;11223;49.968;9.062;2023-03-17T06:47:48;4.00;99.90
22114;DHT22;11223;49.968;9.062;2023-03-17T06:50:13;4.20;99.90
22114;DHT22;11223;49.968;9.062;2023-03-17T06:52:39;4.30;99.90
22114;DHT22;11223;49.968;9.062;2023-03-17T06:55:06;4.50;99.90
22114;DHT22;11223;49.968;9.062;2023-03-17T06:57:33;4.50;99.90
22114;DHT22;11223;49.968;9.062;2023-03-17T06:59:58;4.70;99.90
22114;DHT22;11223;49.968;9.062;2023-03-17T07:02:24;4.80;99.90
22114;DHT22;11223;49.968;9.062;2023-03-17T07:04:50;4.80;99.90
22114;DHT22;11223;49.968;9.062;2023-03-17T07:07:16;4.90;99.90
22114;DHT22;11223;49.968;9.062;2023-03-17T07:09:42;5.00;99.90
22114;DHT22;11223;49.968;9.062;2023-03-17T07:12:08;5.10;99.90
22114;DHT22;11223;49.968;9.062;2023-03-17T07:14:35;5.20;99.90
22114;DHT22;11223;49.968;9.062;2023-03-17T07:17:04;5.20;99.90
22114;DHT22;11223;49.968;9.062;2023-03-17T07:19:31;5.30;99.90
22114;DHT22;11223;49.968;9.062;2023-03-17T07:21:57;5.40;99.90
22114;DHT22;11223;49.968;9.062;2023-03-17T07:24:24;5.50;99.90
22114;DHT22;11223;49.968;9.062;2023-03-17T07:26:50;5.60;99.90
22114;DHT22;11223;49.968;9.062;2023-03-17T07:29:15;5.70;99.90
22114;DHT22;11223;49.968;9.062;2023-03-17T07:31:43;5.80;99.90
22114;DHT22;11223;49.968;9.062;2023-03-17T07:34:08;6.00;99.90
22114;DHT22;11223;49.968;9.062;2023-03-17T07:36:35;6.20;99.90
22114;DHT22;11223;49.968;9.062;2023-03-17T07:39:00;6.30;99.90
22114;DHT22;11223;49.968;9.062;2023-03-17T07:41:26;6.40;99.90
22114;DHT22;11223;49.968;9.062;2023-03-17T07:43:53;6.50;99.90
22114;DHT22;11223;49.968;9.062;2023-03-17T07:46:19;6.60;99.90
22114;DHT22;11223;49.968;9.062;2023-03-17T07:48:45;6.70;99.90
22114;DHT22;11223;49.968;9.062;2023-03-17T07:51:14;6.80;99.90
22114;DHT22;11223;49.968;9.062;2023-03-17T07:53:40;6.90;99.90
22114;DHT22;11223;49.968;9.062;2023-03-17T07:56:06;7.10;99.90
22114;DHT22;11223;49.968;9.062;2023-03-17T07:58:32;7.30;99.90
22114;DHT22;11223;49.968;9.062;2023-03-17T08:00:58;7.90;99.90
22114;DHT22;11223;49.968;9.062;2023-03-17T08:03:23;9.30;99.90
22114;DHT22;11223;49.968;9.062;2023-03-17T08:05:53;11.00;99.90
22114;DHT22;11223;49.968;9.062;2023-03-17T08:08:23;12.40;99.90
22114;DHT22;11223;49.968;9.062;2023-03-17T08:10:49;13.50;96.00
22114;DHT22;11223;49.968;9.062;2023-03-17T08:13:15;14.30;92.70
22114;DHT22;11223;49.968;9.062;2023-03-17T08:15:41;15.00;90.20
22114;DHT22;11223;49.968;9.062;2023-03-17T08:18:07;15.60;84.50
22114;DHT22;11223;49.968;9.062;2023-03-17T08:20:33;15.90;81.40
22114;DHT22;11223;49.968;9.062;2023-03-17T08:22:59;16.10;79.00
22114;DHT22;11223;49.968;9.062;2023-03-17T08:25:28;16.60;76.60
22114;DHT22;11223;49.968;9.062;2023-03-17T08:27:54;17.30;74.00
22114;DHT22;11223;49.968;9.062;2023-03-17T08:30:20;17.90;71.60
22114;DHT22;11223;49.968;9.062;2023-03-17T08:32:46;18.60;67.60
22114;DHT22;11223;49.968;9.062;2023-03-17T08:35:16;18.90;65.60
22114;DHT22;11223;49.968;9.062;2023-03-17T08:37:43;19.20;62.60
22114;DHT22;11223;49.968;9.062;2023-03-17T08:40:11;19.30;60.80
22114;DHT22;11223;49.968;9.062;2023-03-17T08:42:38;19.10;59.80
22114;DHT22;11223;49.968;9.062;2023-03-17T08:45:04;19.00;60.40
22114;DHT22;11223;49.968;9.062;2023-03-17T08:47:32;18.90;59.80
22114;DHT22;11223;49.968;9.062;2023-03-17T08:49:57;18.50;60.00
22114;DHT22;11223;49.968;9.062;2023-03-17T08:52:25;18.10;61.70
22114;DHT22;11223;49.968;9.062;2023-03-17T08:54:52;17.40;63.40
22114;DHT22;11223;49.968;9.062;2023-03-17T08:57:18;16.60;65.50
22114;DHT22;11223;49.968;9.062;2023-03-17T08:59:44;15.70;67.90
22114;DHT22;11223;49.968;9.062;2023-03-17T09:02:11;15.00;70.00
22114;DHT22;11223;49.968;9.062;2023-03-17T09:04:37;14.50;71.70
22114;DHT22;11223;49.968;9.062;2023-03-17T09:07:02;14.10;73.60
22114;DHT22;11223;49.968;9.062;2023-03-17T09:09:28;13.90;74.80
22114;DHT22;11223;49.968;9.062;2023-03-17T09:11:55;13.80;74.70
22114;DHT22;11223;49.968;9.062;2023-03-17T09:14:21;13.70;74.60
22114;DHT22;11223;49.968;9.062;2023-03-17T09:16:49;13.40;75.40
22114;DHT22;11223;49.968;9.062;2023-03-17T09:19:15;13.30;76.30
22114;DHT22;11223;49.968;9.062;2023-03-17T09:21:42;13.10;76.90
22114;DHT22;11223;49.968;9.062;2023-03-17T09:24:08;13.10;78.40
22114;DHT22;11223;49.968;9.062;2023-03-17T09:26:34;13.20;78.00
22114;DHT22;11223;49.968;9.062;2023-03-17T09:29:00;13.30;78.00
22114;DHT22;11223;49.968;9.062;2023-03-17T09:31:26;13.40;78.80
22114;DHT22;11223;49.968;9.062;2023-03-17T09:33:52;13.50;79.50
22114;DHT22;11223;49.968;9.062;2023-03-17T09:36:17;13.50;79.20
22114;DHT22;11223;49.968;9.062;2023-03-17T09:38:44;13.60;79.10
22114;DHT22;11223;49.968;9.062;2023-03-17T09:41:27;13.80;78.60
22114;DHT22;11223;49.968;9.062;2023-03-17T09:44:13;14.00;78.20
22114;DHT22;11223;49.968;9.062;2023-03-17T09:47:17;14.20;77.50
22114;DHT22;11223;49.968;9.062;2023-03-17T09:49:58;14.30;77.00
22114;DHT22;11223;49.968;9.062;2023-03-17T09:52:28;14.30;77.00
22114;DHT22;11223;49.968;9.062;2023-03-17T09:54:55;14.20;76.70
22114;DHT22;11223;49.968;9.062;2023-03-17T09:57:34;14.20;76.80
22114;DHT22;11223;49.968;9.062;2023-03-17T10:02:34;14.10;75.30
22114;DHT22;11223;49.968;9.062;2023-03-17T10:05:21;14.00;75.30
22114;DHT22;11223;49.968;9.062;2023-03-17T10:10:44;13.70;75.80
22114;DHT22;11223;49.968;9.062;2023-03-17T10:16:14;13.60;76.60
22114;DHT22;11223;49.968;9.062;2023-03-17T10:18:54;13.60;77.10
22114;DHT22;11223;49.968;9.062;2023-03-17T10:21:25;13.70;76.60
22114;DHT22;11223;49.968;9.062;2023-03-17T10:23:52;13.80;76.70
22114;DHT22;11223;49.968;9.062;2023-03-17T10:26:36;14.00;76.00
22114;DHT22;11223;49.968;9.062;2023-03-17T10:29:17;14.30;76.10
22114;DHT22;11223;49.968;9.062;2023-03-17T10:31:43;14.40;75.30
22114;DHT22;11223;49.968;9.062;2023-03-17T10:36:49;14.70;74.50
22114;DHT22;11223;49.968;9.062;2023-03-17T10:39:21;14.70;74.40
22114;DHT22;11223;49.968;9.062;2023-03-17T10:41:57;14.80;74.90
22114;DHT22;11223;49.968;9.062;2023-03-17T10:44:53;14.80;74.50
22114;DHT22;11223;49.968;9.062;2023-03-17T10:48:06;14.90;75.00
22114;DHT22;11223;49.968;9.062;2023-03-17T10:50:35;15.10;75.40
22114;DHT22;11223;49.968;9.062;2023-03-17T10:55:42;15.80;74.80
22114;DHT22;11223;49.968;9.062;2023-03-17T10:58:14;16.50;74.30
22114;DHT22;11223;49.968;9.062;2023-03-17T11:01:02;17.40;71.50
22114;DHT22;11223;49.968;9.062;2023-03-17T11:03:31;18.50;70.10
22114;DHT22;11223;49.968;9.062;2023-03-17T11:06:06;19.70;65.90
22114;DHT22;11223;49.968;9.062;2023-03-17T11:08:53;20.60;62.10
22114;DHT22;11223;49.968;9.062;2023-03-17T11:11:32;21.40;59.50
22114;DHT22;11223;49.968;9.062;2023-03-17T11:14:13;21.70;58.40
22114;DHT22;11223;49.968;9.062;2023-03-17T11:16:54;22.40;58.60
22114;DHT22;11223;49.968;9.062;2023-03-17T11:19:36;23.40;56.50
22114;DHT22;11223;49.968;9.062;2023-03-17T11:22:16;24.00;54.20
22114;DHT22;11223;49.968;9.062;2023-03-17T11:27:33;24.30;52.40
22114;DHT22;11223;49.968;9.062;2023-03-17T11:30:10;24.10;52.20
22114;DHT22;11223;49.968;9.062;2023-03-17T11:32:52;23.90;52.60
22114;DHT22;11223;49.968;9.062;2023-03-17T11:38:21;23.50;51.70
22114;DHT22;11223;49.968;9.062;2023-03-17T11:49:20;20.50;56.00
22114;DHT22;11223;49.968;9.062;2023-03-17T11:51:57;19.80;56.60
22114;DHT22;11223;49.968;9.062;2023-03-17T11:54:58;19.30;57.50
22114;DHT22;11223;49.968;9.062;2023-03-17T11:57:38;18.80;58.30
22114;DHT22;11223;49.968;9.062;2023-03-17T12:05:26;18.30;59.70
22114;DHT22;11223;49.968;9.062;2023-03-17T12:10:50;18.00;61.20
22114;DHT22;11223;49.968;9.062;2023-03-17T12:15:51;17.90;62.30
22114;DHT22;11223;49.968;9.062;2023-03-17T12:18:36;17.90;63.00
22114;DHT22;11223;49.968;9.062;2023-03-17T12:21:07;17.90;62.60
22114;DHT22;11223;49.968;9.062;2023-03-17T12:27:02;18.30;63.20
22114;DHT22;11223;49.968;9.062;2023-03-17T12:35:28;18.10;62.60
22114;DHT22;11223;49.968;9.062;2023-03-17T12:37:59;18.00;63.90
22114;DHT22;11223;49.968;9.062;2023-03-17T12:40:49;17.90;63.40
22114;DHT22;11223;49.968;9.062;2023-03-17T12:43:45;17.80;64.00
22114;DHT22;11223;49.968;9.062;2023-03-17T12:51:55;17.60;65.00
22114;DHT22;11223;49.968;9.062;2023-03-17T12:54:29;17.60;65.10
22114;DHT22;11223;49.968;9.062;2023-03-17T12:57:17;17.60;66.00
22114;DHT22;11223;49.968;9.062;2023-03-17T12:59:46;17.60;66.10
22114;DHT22;11223;49.968;9.062;2023-03-17T13:02:37;17.60;66.70
22114;DHT22;11223;49.968;9.062;2023-03-17T13:05:08;17.80;67.00
22114;DHT22;11223;49.968;9.062;2023-03-17T13:10:15;18.00;66.50
22114;DHT22;11223;49.968;9.062;2023-03-17T13:15:46;18.10;65.80
22114;DHT22;11223;49.968;9.062;2023-03-17T13:20:42;18.20;66.20
22114;DHT22;11223;49.968;9.062;2023-03-17T13:44:09;18.40;65.20
22114;DHT22;11223;49.968;9.062;2023-03-17T13:51:54;18.30;65.90
22114;DHT22;11223;49.968;9.062;2023-03-17T13:54:32;18.30;65.80
22114;DHT22;11223;49.968;9.062;2023-03-17T14:02:17;18.50;67.80
22114;DHT22;11223;49.968;9.062;2023-03-17T14:04:53;18.50;67.60
22114;DHT22;11223;49.968;9.062;2023-03-17T14:07:27;18.50;67.10
22114;DHT22;11223;49.968;9.062;2023-03-17T14:09:59;18.50;67.70
22114;DHT22;11223;49.968;9.062;2023-03-17T14:12:34;18.50;67.60
22114;DHT22;11223;49.968;9.062;2023-03-17T14:15:36;18.40;66.50
22114;DHT22;11223;49.968;9.062;2023-03-17T14:18:28;18.30;66.90
22114;DHT22;11223;49.968;9.062;2023-03-17T14:20:57;18.20;66.60
22114;DHT22;11223;49.968;9.062;2023-03-17T14:23:24;18.10;66.50
22114;DHT22;11223;49.968;9.062;2023-03-17T14:25:50;17.90;66.40
22114;DHT22;11223;49.968;9.062;2023-03-17T14:28:25;17.80;66.70
22114;DHT22;11223;49.968;9.062;2023-03-17T14:30:58;17.70;68.00
22114;DHT22;11223;49.968;9.062;2023-03-17T14:33:26;17.60;68.30
22114;DHT22;11223;49.968;9.062;2023-03-17T14:35:56;17.40;68.60
22114;DHT22;11223;49.968;9.062;2023-03-17T14:38:30;17.30;69.30
22114;DHT22;11223;49.968;9.062;2023-03-17T14:41:18;17.30;70.10
22114;DHT22;11223;49.968;9.062;2023-03-17T14:43:44;17.20;70.50
22114;DHT22;11223;49.968;9.062;2023-03-17T14:46:24;17.10;70.40
22114;DHT22;11223;49.968;9.062;2023-03-17T14:51:36;17.00;71.70
22114;DHT22;11223;49.968;9.062;2023-03-17T14:56:51;16.90;71.90
22114;DHT22;11223;49.968;9.062;2023-03-17T14:59:22;16.90;71.90
22114;DHT22;11223;49.968;9.062;2023-03-17T15:01:54;16.90;72.10
22114;DHT22;11223;49.968;9.062;2023-03-17T15:04:24;16.80;72.30
22114;DHT22;11223;49.968;9.062;2023-03-17T15:06:56;16.80;72.50
22114;DHT22;11223;49.968;9.062;2023-03-17T15:09:36;16.70;72.70
22114;DHT22;11223;49.968;9.062;2023-03-17T15:12:14;16.60;72.90
22114;DHT22;11223;49.968;9.062;2023-03-17T15:14:42;16.60;72.60
22114;DHT22;11223;49.968;9.062;2023-03-17T15:17:24;16.50;72.60
22114;DHT22;11223;49.968;9.062;2023-03-17T15:19:52;16.50;73.00
22114;DHT22;11223;49.968;9.062;2023-03-17T15:27:42;16.30;74.00
22114;DHT22;11223;49.968;9.062;2023-03-17T15:30:09;16.20;73.60
22114;DHT22;11223;49.968;9.062;2023-03-17T15:32:34;16.10;73.90
22114;DHT22;11223;49.968;9.062;2023-03-17T15:35:00;16.10;74.30
22114;DHT22;11223;49.968;9.062;2023-03-17T15:37:28;16.00;74.40
22114;DHT22;11223;49.968;9.062;2023-03-17T15:39:55;16.00;74.60
22114;DHT22;11223;49.968;9.062;2023-03-17T15:42:24;15.90;75.00
22114;DHT22;11223;49.968;9.062;2023-03-17T15:44:51;15.90;74.00
22114;DHT22;11223;49.968;9.062;2023-03-17T15:47:19;15.90;74.30
22114;DHT22;11223;49.968;9.062;2023-03-17T15:49:46;15.80;74.90
22114;DHT22;11223;49.968;9.062;2023-03-17T15:52:18;15.80;74.50
22114;DHT22;11223;49.968;9.062;2023-03-17T15:54:46;15.80;74.50
22114;DHT22;11223;49.968;9.062;2023-03-17T15:57:12;15.70;74.60
22114;DHT22;11223;49.968;9.062;2023-03-17T15:59:39;15.70;75.00
22114;DHT22;11223;49.968;9.062;2023-03-17T16:02:26;15.70;74.70
22114;DHT22;11223;49.968;9.062;2023-03-17T16:04:52;15.60;75.50
22114;DHT22;11223;49.968;9.062;2023-03-17T16:07:19;15.60;75.40
22114;DHT22;11223;49.968;9.062;2023-03-17T16:09:45;15.50;75.80
22114;DHT22;11223;49.968;9.062;2023-03-17T16:12:12;15.50;76.10
22114;DHT22;11223;49.968;9.062;2023-03-17T16:14:37;15.40;77.10
22114;DHT22;11223;49.968;9.062;2023-03-17T16:17:04;15.40;77.00
22114;DHT22;11223;49.968;9.062;2023-03-17T16:19:30;15.40;76.40
22114;DHT22;11223;49.968;9.062;2023-03-17T16:21:56;15.30;76.60
22114;DHT22;11223;49.968;9.062;2023-03-17T16:24:24;15.30;76.70
22114;DHT22;11223;49.968;9.062;2023-03-17T16:26:50;15.30;77.40
22114;DHT22;11223;49.968;9.062;2023-03-17T16:29:17;15.20;77.80
22114;DHT22;11223;49.968;9.062;2023-03-17T16:31:46;15.20;78.00
22114;DHT22;11223;49.968;9.062;2023-03-17T16:34:18;15.20;78.10
22114;DHT22;11223;49.968;9.062;2023-03-17T16:36:45;15.20;78.30
22114;DHT22;11223;49.968;9.062;2023-03-17T16:39:22;15.10;78.50
22114;DHT22;11223;49.968;9.062;2023-03-17T16:41:48;15.10;78.40
22114;DHT22;11223;49.968;9.062;2023-03-17T16:44:16;15.10;78.80
22114;DHT22;11223;49.968;9.062;2023-03-17T16:46:43;15.10;79.20
22114;DHT22;11223;49.968;9.062;2023-03-17T16:49:16;15.00;80.30
22114;DHT22;11223;49.968;9.062;2023-03-17T16:51:42;14.80;81.70
22114;DHT22;11223;49.968;9.062;2023-03-17T16:54:09;14.70;83.50
22114;DHT22;11223;49.968;9.062;2023-03-17T16:56:35;14.60;85.50
22114;DHT22;11223;49.968;9.062;2023-03-17T16:59:01;14.40;87.30
22114;DHT22;11223;49.968;9.062;2023-03-17T17:01:27;14.20;88.50
22114;DHT22;11223;49.968;9.062;2023-03-17T17:03:53;14.10;90.10
22114;DHT22;11223;49.968;9.062;2023-03-17T17:06:21;14.00;91.00
22114;DHT22;11223;49.968;9.062;2023-03-17T17:08:47;13.80;91.60
22114;DHT22;11223;49.968;9.062;2023-03-17T17:11:14;13.70;92.30
22114;DHT22;11223;49.968;9.062;2023-03-17T17:13:41;13.60;93.40
22114;DHT22;11223;49.968;9.062;2023-03-17T17:16:27;13.40;94.20
22114;DHT22;11223;49.968;9.062;2023-03-17T17:18:53;13.30;95.20
22114;DHT22;11223;49.968;9.062;2023-03-17T17:21:19;13.20;96.00
22114;DHT22;11223;49.968;9.062;2023-03-17T17:23:45;13.10;96.80
22114;DHT22;11223;49.968;9.062;2023-03-17T17:26:11;12.90;97.70
22114;DHT22;11223;49.968;9.062;2023-03-17T17:28:36;12.90;98.50
22114;DHT22;11223;49.968;9.062;2023-03-17T17:31:05;12.70;99.00
22114;DHT22;11223;49.968;9.062;2023-03-17T17:33:30;12.60;99.70
22114;DHT22;11223;49.968;9.062;2023-03-17T17:35:56;12.50;99.90